createdAt,value
2022-08-27T00:00:55.217Z,21
2022-08-27T00:01:55.271Z,21.2
2022-08-27T00:02:55.217Z,21
2022-08-27T00:03:55.319Z,20.9
2022-08-27T00:04:55.273Z,20.8
2022-08-27T00:05:55.233Z,20.8
2022-08-27T00:06:55.231Z,20.9
2022-08-27T00:07:55.233Z,20.9
2022-08-27T00:08:55.242Z,21
2022-08-27T00:09:55.313Z,21
2022-08-27T00:10:55.226Z,21
2022-08-27T00:11:55.236Z,20.9
2022-08-27T00:12:55.232Z,20.9
2022-08-27T00:13:55.232Z,21.1
2022-08-27T00:14:55.236Z,21
2022-08-27T00:15:55.231Z,20.9
2022-08-27T00:16:55.330Z,20.9
2022-08-27T00:17:55.228Z,21
2022-08-27T00:18:55.244Z,21
2022-08-27T00:19:55.223Z,20.8
2022-08-27T00:20:55.229Z,20.7
2022-08-27T00:21:55.303Z,20.6
2022-08-27T00:22:55.223Z,20.7
2022-08-27T00:23:55.235Z,20.7
2022-08-27T00:24:55.233Z,20.8
2022-08-27T00:25:55.244Z,20.8
2022-08-27T00:26:55.246Z,21
2022-08-27T00:27:55.227Z,20.8
2022-08-27T00:28:55.284Z,20.9
2022-08-27T00:29:55.242Z,20.7
2022-08-27T00:30:55.240Z,20.9
2022-08-27T00:31:55.240Z,20.9
2022-08-27T00:32:55.225Z,20.8
2022-08-27T00:33:55.308Z,20.7
2022-08-27T00:34:55.222Z,20.9
2022-08-27T00:35:55.225Z,21
2022-08-27T00:36:55.232Z,21.1
2022-08-27T00:37:55.225Z,21.1
2022-08-27T00:38:55.218Z,21
2022-08-27T00:39:55.293Z,21.1
2022-08-27T00:40:55.235Z,21
2022-08-27T00:41:55.229Z,20.9
2022-08-27T00:42:55.223Z,21
2022-08-27T00:43:55.239Z,20.8
2022-08-27T00:44:55.241Z,20.7
2022-08-27T00:45:55.337Z,20.9
2022-08-27T00:46:49.699Z,20.7
2022-08-27T00:47:55.233Z,20.6
2022-08-27T00:48:55.242Z,20.7
2022-08-27T00:49:55.232Z,20.5
2022-08-27T00:50:55.231Z,20.3
2022-08-27T00:51:55.235Z,20.4
2022-08-27T00:52:55.298Z,20.6
2022-08-27T00:53:55.240Z,20.6
2022-08-27T00:54:55.239Z,20.6
2022-08-27T00:55:55.237Z,20.7
2022-08-27T00:56:55.248Z,20.4
2022-08-27T00:57:55.245Z,20.5
2022-08-27T00:58:55.231Z,20.4
2022-08-27T00:59:55.242Z,20.4
2022-08-27T01:00:55.331Z,20.4
2022-08-27T01:01:55.283Z,20.8
2022-08-27T01:02:55.244Z,20.8
2022-08-27T01:03:55.237Z,20.7
2022-08-27T01:04:55.261Z,20.9
2022-08-27T01:05:55.253Z,20.8
2022-08-27T01:06:55.250Z,20.8
2022-08-27T01:07:55.246Z,20.6
2022-08-27T01:08:55.233Z,20.8
2022-08-27T01:09:55.276Z,20.8
2022-08-27T01:10:55.250Z,20.6
2022-08-27T01:11:55.261Z,20.4
2022-08-27T01:12:55.236Z,20.3
2022-08-27T01:13:59.673Z,20.5
2022-08-27T01:14:55.270Z,20.4
2022-08-27T01:15:55.301Z,20.2
2022-08-27T01:16:55.242Z,20
2022-08-27T01:17:55.273Z,20
2022-08-27T01:18:55.262Z,20
2022-08-27T01:19:55.249Z,19.9
2022-08-27T01:20:55.241Z,19.9
2022-08-27T01:21:55.245Z,20.2
2022-08-27T01:22:55.249Z,20.2
2022-08-27T01:23:55.237Z,20.1
2022-08-27T01:24:55.268Z,20
2022-08-27T01:25:55.246Z,19.9
2022-08-27T01:26:55.314Z,19.8
2022-08-27T01:27:55.248Z,19.8
2022-08-27T01:28:55.260Z,19.8
2022-08-27T01:29:55.255Z,19.9
2022-08-27T01:30:55.255Z,20
2022-08-27T01:31:55.322Z,20
2022-08-27T01:32:55.246Z,20
2022-08-27T01:33:55.256Z,19.9
2022-08-27T01:34:55.242Z,20.1
2022-08-27T01:35:55.256Z,20
2022-08-27T01:36:57.577Z,20
2022-08-27T01:37:57.143Z,20
2022-08-27T01:38:55.266Z,19.8
2022-08-27T01:39:55.375Z,19.9
2022-08-27T01:40:55.245Z,20.2
2022-08-27T01:41:55.256Z,20.2
2022-08-27T01:42:55.251Z,20.1
2022-08-27T01:43:55.337Z,20
2022-08-27T01:44:55.251Z,20.2
2022-08-27T01:45:55.488Z,20
2022-08-27T01:46:55.508Z,20.1
2022-08-27T01:47:55.256Z,20.2
2022-08-27T01:48:55.279Z,19.9
2022-08-27T01:49:55.260Z,19.8
2022-08-27T01:50:55.260Z,19.9
2022-08-27T01:51:55.258Z,20.2
2022-08-27T01:52:55.274Z,20.3
2022-08-27T01:53:55.250Z,20
2022-08-27T01:54:55.262Z,20
2022-08-27T01:55:55.255Z,19.9
2022-08-27T01:56:55.270Z,20
2022-08-27T01:57:55.371Z,20
2022-08-27T01:58:55.266Z,20
2022-08-27T01:59:55.274Z,20.1
2022-08-27T02:00:56.255Z,20.1
2022-08-27T02:01:55.342Z,20.1
2022-08-27T02:02:55.318Z,20.2
2022-08-27T02:03:55.265Z,20
2022-08-27T02:04:55.280Z,19.8
2022-08-27T02:05:55.268Z,19.7
2022-08-27T02:06:55.260Z,19.8
2022-08-27T02:07:55.277Z,19.8
2022-08-27T02:08:55.252Z,19.6
2022-08-27T02:09:55.257Z,19.5
2022-08-27T02:10:55.266Z,19.5
2022-08-27T02:11:55.283Z,19.5
2022-08-27T02:12:55.275Z,19.4
2022-08-27T02:13:55.270Z,19.5
2022-08-27T02:14:55.260Z,19.6
2022-08-27T02:15:55.336Z,19.8
2022-08-27T02:16:55.249Z,20.3
2022-08-27T02:17:55.270Z,20
2022-08-27T02:18:55.268Z,20.2
2022-08-27T02:19:55.253Z,20
2022-08-27T02:20:55.253Z,20.1
2022-08-27T02:21:55.267Z,20.2
2022-08-27T02:22:55.299Z,20.1
2022-08-27T02:23:55.253Z,20.2
2022-08-27T02:24:55.260Z,20.1
2022-08-27T02:25:55.262Z,20.4
2022-08-27T02:26:55.264Z,20.4
2022-08-27T02:27:55.276Z,20.7
2022-08-27T02:28:55.285Z,20.7
2022-08-27T02:29:55.301Z,20.6
2022-08-27T02:30:55.325Z,20.4
2022-08-27T02:31:55.289Z,20.3
2022-08-27T02:32:55.299Z,20.2
2022-08-27T02:33:55.258Z,20.2
2022-08-27T02:34:55.268Z,19.9
2022-08-27T02:35:55.306Z,19.8
2022-08-27T02:36:55.287Z,19.8
2022-08-27T02:37:55.278Z,19.8
2022-08-27T02:39:55.312Z,20
2022-08-27T02:40:55.268Z,19.8
2022-08-27T02:41:55.271Z,20.1
2022-08-27T02:42:55.295Z,20.2
2022-08-27T02:43:55.293Z,20.5
2022-08-27T02:44:55.264Z,20.4
2022-08-27T02:45:55.268Z,20.1
2022-08-27T02:46:55.422Z,20.3
2022-08-27T02:47:55.324Z,20.7
2022-08-27T02:48:55.267Z,20.5
2022-08-27T02:49:55.274Z,20.4
2022-08-27T02:50:55.295Z,20.2
2022-08-27T02:51:55.343Z,20
2022-08-27T02:52:55.289Z,20.1
2022-08-27T02:53:55.275Z,20.2
2022-08-27T02:54:55.258Z,20.1
2022-08-27T02:55:55.268Z,20
2022-08-27T02:56:55.278Z,20
2022-08-27T02:58:55.259Z,19.9
2022-08-27T02:59:55.319Z,19.8
2022-08-27T03:00:55.292Z,20
2022-08-27T03:01:55.403Z,20.1
2022-08-27T03:02:55.311Z,20.3
2022-08-27T03:03:55.278Z,20.4
2022-08-27T03:04:55.295Z,20.3
2022-08-27T03:05:55.292Z,20.2
2022-08-27T03:06:55.294Z,20.1
2022-08-27T03:07:55.291Z,19.8
2022-08-27T03:08:55.298Z,19.9
2022-08-27T03:09:55.278Z,19.7
2022-08-27T03:10:55.281Z,19.8
2022-08-27T03:11:55.292Z,20
2022-08-27T03:12:55.276Z,20.2
2022-08-27T03:13:55.286Z,20.1
2022-08-27T03:14:55.290Z,20.1
2022-08-27T03:15:55.441Z,20.1
2022-08-27T03:16:55.271Z,19.8
2022-08-27T03:17:55.286Z,19.6
2022-08-27T03:18:55.301Z,19.8
2022-08-27T03:19:55.276Z,19.6
2022-08-27T03:20:55.288Z,19.5
2022-08-27T03:21:55.282Z,19.4
2022-08-27T03:22:55.289Z,19.3
2022-08-27T03:23:55.278Z,19.3
2022-08-27T03:24:55.297Z,19.5
2022-08-27T03:25:55.279Z,19.5
2022-08-27T03:26:55.302Z,19.4
2022-08-27T03:27:55.282Z,19.4
2022-08-27T03:28:55.290Z,19.5
2022-08-27T03:29:55.291Z,19.4
2022-08-27T03:30:55.324Z,19.5
2022-08-27T03:31:55.283Z,19.5
2022-08-27T03:32:55.316Z,19.5
2022-08-27T03:33:55.300Z,19.4
2022-08-27T03:34:55.293Z,19.4
2022-08-27T03:35:55.284Z,19.5
2022-08-27T03:36:55.280Z,19.5
2022-08-27T03:37:55.274Z,19.7
2022-08-27T03:38:55.289Z,20
2022-08-27T03:39:55.346Z,19.9
2022-08-27T03:40:55.285Z,19.7
2022-08-27T03:41:55.801Z,19.7
2022-08-27T03:42:55.277Z,19.7
2022-08-27T03:43:55.294Z,19.9
2022-08-27T03:44:55.277Z,20
2022-08-27T03:46:01.815Z,20
2022-08-27T03:46:55.280Z,19.8
2022-08-27T03:47:55.284Z,19.6
2022-08-27T03:48:57.385Z,19.6
2022-08-27T03:49:55.316Z,19.6
2022-08-27T03:50:55.279Z,19.5
2022-08-27T03:51:55.287Z,19.6
2022-08-27T03:52:55.285Z,19.5
2022-08-27T03:53:55.283Z,19.8
2022-08-27T03:54:55.291Z,19.8
2022-08-27T03:55:55.292Z,19.9
2022-08-27T03:56:55.285Z,20.1
2022-08-27T03:57:55.289Z,19.9
2022-08-27T03:58:55.287Z,19.7
2022-08-27T03:59:55.294Z,19.6
2022-08-27T04:00:55.286Z,19.5
2022-08-27T04:01:55.390Z,19.4
2022-08-27T04:02:55.347Z,19.4
2022-08-27T04:03:55.315Z,19.6
2022-08-27T04:04:55.283Z,19.7
2022-08-27T04:05:55.289Z,19.6
2022-08-27T04:06:56.076Z,19.8
2022-08-27T04:07:55.298Z,19.8
2022-08-27T04:08:55.296Z,19.8
2022-08-27T04:09:55.307Z,19.9
2022-08-27T04:10:55.283Z,19.9
2022-08-27T04:11:55.285Z,19.9
2022-08-27T04:12:55.302Z,19.7
2022-08-27T04:13:55.376Z,19.8
2022-08-27T04:14:55.297Z,19.7
2022-08-27T04:15:55.354Z,19.9
2022-08-27T04:16:55.298Z,20
2022-08-27T04:17:55.298Z,20
2022-08-27T04:18:55.341Z,19.8
2022-08-27T04:19:55.286Z,19.8
2022-08-27T04:20:55.313Z,19.8
2022-08-27T04:21:55.301Z,20
2022-08-27T04:22:55.313Z,20
2022-08-27T04:23:55.311Z,19.9
2022-08-27T04:24:55.288Z,19.8
2022-08-27T04:25:55.347Z,19.9
2022-08-27T04:26:55.297Z,20
2022-08-27T04:27:55.296Z,20.2
2022-08-27T04:28:55.315Z,20
2022-08-27T04:29:55.297Z,20.1
2022-08-27T04:30:55.441Z,20.1
2022-08-27T04:31:55.293Z,20.5
2022-08-27T04:32:55.303Z,20.1
2022-08-27T04:33:55.281Z,19.9
2022-08-27T04:34:55.295Z,20.1
2022-08-27T04:35:55.325Z,20.2
2022-08-27T04:36:55.302Z,20.4
2022-08-27T04:37:55.290Z,20.3
2022-08-27T04:38:55.318Z,20.4
2022-08-27T04:39:55.351Z,20.2
2022-08-27T04:40:55.301Z,20.2
2022-08-27T04:41:55.301Z,20.3
2022-08-27T04:42:55.304Z,19.9
2022-08-27T04:43:55.306Z,19.9
2022-08-27T04:44:55.302Z,19.8
2022-08-27T04:45:55.303Z,20
2022-08-27T04:46:55.338Z,20
2022-08-27T04:47:55.340Z,20.1
2022-08-27T04:48:55.307Z,20.1
2022-08-27T04:49:55.296Z,20.1
2022-08-27T04:50:55.301Z,20.4
2022-08-27T04:51:55.307Z,20.6
2022-08-27T04:52:55.306Z,20.7
2022-08-27T04:53:55.297Z,20.6
2022-08-27T04:54:55.303Z,20.6
2022-08-27T04:55:55.310Z,20.5
2022-08-27T04:56:55.316Z,20.3
2022-08-27T04:57:55.323Z,20.3
2022-08-27T04:58:55.312Z,20.3
2022-08-27T04:59:55.309Z,20.3
2022-08-27T05:00:55.316Z,20.1
2022-08-27T05:01:55.360Z,20.1
2022-08-27T05:02:55.293Z,20.2
2022-08-27T05:03:55.305Z,20.1
2022-08-27T05:04:55.364Z,20.4
2022-08-27T05:05:55.294Z,20.1
2022-08-27T05:06:55.307Z,19.9
2022-08-27T05:07:55.300Z,20.1
2022-08-27T05:08:55.320Z,20.3
2022-08-27T05:09:55.310Z,20.3
2022-08-27T05:10:55.313Z,20.5
2022-08-27T05:11:55.311Z,20.4
2022-08-27T05:12:59.389Z,20.2
2022-08-27T05:13:55.317Z,20.4
2022-08-27T05:14:55.298Z,20.1
2022-08-27T05:15:55.353Z,20.3
2022-08-27T05:16:55.309Z,20.6
2022-08-27T05:17:55.314Z,20.8
2022-08-27T05:18:55.304Z,20.7
2022-08-27T05:19:55.312Z,20.7
2022-08-27T05:20:55.313Z,20.6
2022-08-27T05:21:55.314Z,20.6
2022-08-27T05:22:55.305Z,20.5
2022-08-27T05:23:55.373Z,20.5
2022-08-27T05:24:55.323Z,20.4
2022-08-27T05:25:55.312Z,20.3
2022-08-27T05:26:55.313Z,20.7
2022-08-27T05:27:55.310Z,21
2022-08-27T05:28:55.337Z,21.1
2022-08-27T05:29:55.320Z,20.8
2022-08-27T05:30:55.999Z,20.8
2022-08-27T05:31:55.348Z,21
2022-08-27T05:32:55.311Z,20.8
2022-08-27T05:33:55.363Z,21
2022-08-27T05:34:55.346Z,20.9
2022-08-27T05:35:55.328Z,20.9
2022-08-27T05:36:55.322Z,20.6
2022-08-27T05:37:55.322Z,20.4
2022-08-27T05:38:55.403Z,20.7
2022-08-27T05:39:55.382Z,20.4
2022-08-27T05:40:55.322Z,20.5
2022-08-27T05:41:55.315Z,20.5
2022-08-27T05:42:55.324Z,20.7
2022-08-27T05:43:55.343Z,20.4
2022-08-27T05:44:55.306Z,20.3
2022-08-27T05:45:55.386Z,20.5
2022-08-27T05:46:55.327Z,20.3
2022-08-27T05:47:55.316Z,20
2022-08-27T05:48:55.447Z,20
2022-08-27T05:49:55.332Z,19.9
2022-08-27T05:50:55.382Z,19.9
2022-08-27T05:51:55.328Z,19.8
2022-08-27T05:52:55.323Z,19.8
2022-08-27T05:53:55.339Z,19.9
2022-08-27T05:54:55.309Z,19.8
2022-08-27T05:55:55.315Z,19.8
2022-08-27T05:56:55.326Z,20
2022-08-27T05:57:55.316Z,20.1
2022-08-27T05:58:55.327Z,19.8
2022-08-27T05:59:55.311Z,19.9
2022-08-27T06:00:58.368Z,20
2022-08-27T06:02:55.366Z,20.2
2022-08-27T06:03:55.339Z,20.1
2022-08-27T06:04:55.461Z,20
2022-08-27T06:05:55.317Z,20.3
2022-08-27T06:07:55.334Z,20.1
2022-08-27T06:09:05.633Z,19.9
2022-08-27T06:10:05.601Z,19.7
2022-08-27T06:11:05.619Z,19.7
2022-08-27T06:11:55.325Z,19.7
2022-08-27T06:12:57.083Z,19.6
2022-08-27T06:13:55.338Z,19.8
2022-08-27T06:14:55.338Z,19.5
2022-08-27T06:15:55.386Z,19.2
2022-08-27T06:16:55.337Z,19.2
2022-08-27T06:17:55.329Z,19.4
2022-08-27T06:18:55.349Z,19.4
2022-08-27T06:19:55.316Z,19.5
2022-08-27T06:20:55.331Z,19.7
2022-08-27T06:22:00.163Z,19.5
2022-08-27T06:22:55.332Z,19.6
2022-08-27T06:23:55.312Z,19.5
2022-08-27T06:24:55.322Z,19.5
2022-08-27T06:25:55.330Z,19.6
2022-08-27T06:26:55.325Z,19.5
2022-08-27T06:27:55.342Z,19.6
2022-08-27T06:28:55.338Z,19.5
2022-08-27T06:29:55.333Z,19.5
2022-08-27T06:30:55.474Z,19.3
2022-08-27T06:31:55.346Z,19.3
2022-08-27T06:32:55.328Z,19.5
2022-08-27T06:33:55.323Z,19.8
2022-08-27T06:34:55.351Z,20.1
2022-08-27T06:35:55.322Z,20
2022-08-27T06:36:55.328Z,19.8
2022-08-27T06:37:55.390Z,19.5
2022-08-27T06:38:55.322Z,19.6
2022-08-27T06:39:55.367Z,20
2022-08-27T06:40:55.309Z,19.9
2022-08-27T06:41:55.340Z,19.7
2022-08-27T06:42:55.407Z,19.4
2022-08-27T06:43:55.333Z,19.9
2022-08-27T06:44:55.368Z,19.8
2022-08-27T06:45:55.358Z,19.5
2022-08-27T06:46:55.329Z,19.2
2022-08-27T06:47:55.333Z,19.4
2022-08-27T06:48:55.325Z,19.7
2022-08-27T06:49:55.384Z,19.6
2022-08-27T06:50:55.332Z,19.7
2022-08-27T06:51:55.364Z,19.6
2022-08-27T06:52:55.325Z,19.8
2022-08-27T06:53:55.336Z,20.3
2022-08-27T06:54:55.357Z,20.1
2022-08-27T06:55:55.334Z,19.9
2022-08-27T06:56:55.328Z,19.8
2022-08-27T06:57:56.174Z,19.8
2022-08-27T06:58:55.383Z,19.9
2022-08-27T06:59:55.338Z,20.1
2022-08-27T07:00:55.335Z,20.6
2022-08-27T07:01:55.477Z,21
2022-08-27T07:02:55.375Z,21.3
2022-08-27T07:03:55.330Z,21
2022-08-27T07:04:56.358Z,20.8
2022-08-27T07:05:55.340Z,20.7
2022-08-27T07:06:55.408Z,20.4
2022-08-27T07:07:55.333Z,20.3
2022-08-27T07:08:55.332Z,20.6
2022-08-27T07:09:55.348Z,20.5
2022-08-27T07:10:55.332Z,20.5
2022-08-27T07:11:55.347Z,20.7
2022-08-27T07:12:55.342Z,20.9
2022-08-27T07:13:55.344Z,21.2
2022-08-27T07:14:55.329Z,21.1
2022-08-27T07:15:55.442Z,21
2022-08-27T07:16:55.352Z,21
2022-08-27T07:17:55.349Z,21.2
2022-08-27T07:18:55.330Z,21
2022-08-27T07:19:55.341Z,20.8
2022-08-27T07:20:55.347Z,21.2
2022-08-27T07:21:55.346Z,21.2
2022-08-27T07:22:55.358Z,21.2
2022-08-27T07:23:55.352Z,21.1
2022-08-27T07:24:55.354Z,21.1
2022-08-27T07:25:55.362Z,20.8
2022-08-27T07:26:55.338Z,20.6
2022-08-27T07:27:55.354Z,20.4
2022-08-27T07:28:55.364Z,20.4
2022-08-27T07:29:55.345Z,20.3
2022-08-27T07:30:55.418Z,20.2
2022-08-27T07:31:55.340Z,20.4
2022-08-27T07:32:55.365Z,20.7
2022-08-27T07:33:55.338Z,20.5
2022-08-27T07:34:55.348Z,20.8
2022-08-27T07:35:55.405Z,20.8
2022-08-27T07:36:55.357Z,20.6
2022-08-27T07:37:55.340Z,20.5
2022-08-27T07:39:01.347Z,20.5
2022-08-27T07:39:55.408Z,20.5
2022-08-27T07:40:55.378Z,20.5
2022-08-27T07:41:55.356Z,20.5
2022-08-27T07:42:55.374Z,20.6
2022-08-27T07:43:56.202Z,20.4
2022-08-27T07:44:55.363Z,20.2
2022-08-27T07:45:55.479Z,20.1
2022-08-27T07:46:55.362Z,20.1
2022-08-27T07:47:55.371Z,20.3
2022-08-27T07:48:55.342Z,20.2
2022-08-27T07:49:55.349Z,20.1
2022-08-27T07:50:55.369Z,20
2022-08-27T07:51:55.367Z,20.3
2022-08-27T07:52:55.372Z,19.9
2022-08-27T07:53:55.340Z,19.8
2022-08-27T07:54:55.359Z,19.5
2022-08-27T07:55:55.345Z,19.2
2022-08-27T07:56:56.072Z,19.3
2022-08-27T07:58:02.191Z,19.7
2022-08-27T07:58:55.347Z,20
2022-08-27T07:59:55.344Z,20
2022-08-27T08:00:55.348Z,20.2
2022-08-27T08:01:55.439Z,20
2022-08-27T08:02:55.460Z,20.1
2022-08-27T08:03:55.369Z,19.9
2022-08-27T08:04:55.400Z,19.9
2022-08-27T08:05:55.378Z,20
2022-08-27T08:06:55.363Z,20.3
2022-08-27T08:07:55.352Z,20.1
2022-08-27T08:08:55.351Z,20
2022-08-27T08:09:55.354Z,20
2022-08-27T08:10:55.354Z,19.9
2022-08-27T08:11:55.360Z,19.9
2022-08-27T08:12:55.362Z,19.9
2022-08-27T08:13:55.390Z,20.1
2022-08-27T08:14:55.353Z,20.3
2022-08-27T08:15:55.360Z,20
2022-08-27T08:16:55.452Z,19.7
2022-08-27T08:17:55.361Z,19.7
2022-08-27T08:18:55.368Z,19.9
2022-08-27T08:20:17.606Z,19.5
2022-08-27T08:20:58.535Z,19.4
2022-08-27T08:22:00.430Z,19.3
2022-08-27T08:22:55.365Z,19.3
2022-08-27T08:23:55.360Z,19.1
2022-08-27T08:24:55.369Z,19.1
2022-08-27T08:25:55.374Z,19.6
2022-08-27T08:26:55.373Z,20.1
2022-08-27T08:27:55.354Z,20.2
2022-08-27T08:28:55.364Z,20.3
2022-08-27T08:29:55.359Z,20.3
2022-08-27T08:30:55.445Z,20.6
2022-08-27T08:31:55.362Z,21.2
2022-08-27T08:32:55.363Z,20.8
2022-08-27T08:33:55.399Z,21.2
2022-08-27T08:34:55.377Z,20.8
2022-08-27T08:35:55.378Z,20.8
2022-08-27T08:36:55.399Z,21
2022-08-27T08:37:55.351Z,21.2
2022-08-27T08:38:55.436Z,21.2
2022-08-27T08:39:55.405Z,21
2022-08-27T08:40:55.368Z,21
2022-08-27T08:41:55.382Z,20.7
2022-08-27T08:42:55.362Z,20.9
2022-08-27T08:43:55.352Z,20.6
2022-08-27T08:44:55.381Z,20.9
2022-08-27T08:45:55.470Z,21
2022-08-27T08:46:55.360Z,21
2022-08-27T08:47:55.385Z,21.1
2022-08-27T08:48:55.367Z,20.9
2022-08-27T08:49:55.363Z,20.7
2022-08-27T08:50:55.368Z,20.2
2022-08-27T08:51:55.386Z,20
2022-08-27T08:52:55.372Z,19.7
2022-08-27T08:53:55.364Z,20
2022-08-27T08:54:55.364Z,20
2022-08-27T08:55:55.375Z,20.2
2022-08-27T08:56:55.437Z,19.9
2022-08-27T08:57:49.660Z,19.8
2022-08-27T08:58:55.356Z,19.7
2022-08-27T08:59:55.371Z,19.8
2022-08-27T09:00:55.468Z,19.9
2022-08-27T09:01:55.363Z,20.6
2022-08-27T09:02:55.435Z,20.2
2022-08-27T09:03:55.470Z,20.5
2022-08-27T09:04:55.381Z,20.4
2022-08-27T09:05:55.373Z,20.4
2022-08-27T09:06:55.372Z,20.5
2022-08-27T09:08:05.155Z,20.3
2022-08-27T09:08:55.383Z,20.6
2022-08-27T09:09:55.395Z,20.6
2022-08-27T09:10:55.379Z,20.7
2022-08-27T09:11:55.370Z,21
2022-08-27T09:12:55.368Z,20.9
2022-08-27T09:13:55.371Z,20.6
2022-08-27T09:14:55.416Z,20.5
2022-08-27T09:15:55.406Z,20.5
2022-08-27T09:16:56.358Z,20.9
2022-08-27T09:17:55.382Z,21.2
2022-08-27T09:18:55.375Z,21.5
2022-08-27T09:19:55.373Z,21.3
2022-08-27T09:20:55.394Z,21.4
2022-08-27T09:21:55.383Z,21.5
2022-08-27T09:22:55.375Z,21.1
2022-08-27T09:23:55.417Z,21.3
2022-08-27T09:24:55.374Z,21
2022-08-27T09:25:55.379Z,21
2022-08-27T09:26:55.376Z,21
2022-08-27T09:27:55.374Z,21.2
2022-08-27T09:28:55.394Z,21.4
2022-08-27T09:29:55.378Z,21.5
2022-08-27T09:30:55.413Z,21.1
2022-08-27T09:31:55.383Z,20.7
2022-08-27T09:32:55.399Z,20.2
2022-08-27T09:33:57.033Z,20.1
2022-08-27T09:34:55.383Z,20.9
2022-08-27T09:35:55.417Z,21.1
2022-08-27T09:36:55.375Z,21.2
2022-08-27T09:37:55.400Z,21.1
2022-08-27T09:38:58.283Z,20.9
2022-08-27T09:39:55.425Z,20.7
2022-08-27T09:40:55.391Z,21.1
2022-08-27T09:41:55.445Z,21
2022-08-27T09:42:55.366Z,20.9
2022-08-27T09:43:55.384Z,21
2022-08-27T09:44:55.413Z,20.9
2022-08-27T09:45:55.442Z,20.9
2022-08-27T09:46:55.372Z,20.6
2022-08-27T09:47:55.385Z,20.8
2022-08-27T09:48:55.372Z,21.1
2022-08-27T09:49:55.376Z,21.5
2022-08-27T09:50:55.386Z,21.3
2022-08-27T09:51:55.401Z,21.2
2022-08-27T09:52:55.375Z,21.2
2022-08-27T09:53:55.389Z,21.5
2022-08-27T09:54:55.394Z,21.8
2022-08-27T09:55:55.381Z,21.7
2022-08-27T09:56:55.380Z,21.6
2022-08-27T09:57:55.396Z,21.6
2022-08-27T09:58:55.440Z,21.5
2022-08-27T09:59:55.398Z,21.7
2022-08-27T10:00:55.454Z,21.5
2022-08-27T10:01:55.390Z,21.5
2022-08-27T10:02:55.382Z,21.4
2022-08-27T10:03:55.519Z,21.2
2022-08-27T10:04:55.395Z,21.2
2022-08-27T10:05:55.381Z,21
2022-08-27T10:06:55.399Z,20.6
2022-08-27T10:07:55.394Z,20.7
2022-08-27T10:08:55.394Z,20.8
2022-08-27T10:09:55.401Z,20.7
2022-08-27T10:10:55.484Z,20.8
2022-08-27T10:11:55.375Z,20.7
2022-08-27T10:12:55.376Z,21.1
2022-08-27T10:13:55.397Z,21.5
2022-08-27T10:14:55.379Z,21.4
2022-08-27T10:15:55.395Z,21.3
2022-08-27T10:16:55.434Z,21.6
2022-08-27T10:17:55.377Z,21.5
2022-08-27T10:18:55.385Z,21.5
2022-08-27T10:19:55.400Z,21.3
2022-08-27T10:20:55.378Z,21
2022-08-27T10:21:55.388Z,21.1
2022-08-27T10:22:55.445Z,21.3
2022-08-27T10:23:55.397Z,21.6
2022-08-27T10:24:55.384Z,21.4
2022-08-27T10:25:55.386Z,21.4
2022-08-27T10:26:55.396Z,21.2
2022-08-27T10:27:55.405Z,21
2022-08-27T10:28:55.387Z,20.7
2022-08-27T10:29:55.390Z,20.3
2022-08-27T10:30:55.402Z,20.4
2022-08-27T10:31:55.465Z,20.7
2022-08-27T10:32:55.464Z,20.8
2022-08-27T10:33:55.419Z,20.9
2022-08-27T10:34:55.404Z,20.8
2022-08-27T10:35:55.384Z,20.8
2022-08-27T10:36:55.400Z,20.9
2022-08-27T10:37:55.392Z,20.9
2022-08-27T10:38:55.418Z,20.7
2022-08-27T10:39:55.417Z,20.5
2022-08-27T10:40:55.394Z,20.6
2022-08-27T10:41:55.408Z,20.5
2022-08-27T10:42:57.656Z,20.4
2022-08-27T10:43:55.391Z,20.6
2022-08-27T10:44:55.434Z,20.7
2022-08-27T10:45:55.483Z,20.7
2022-08-27T10:46:55.401Z,20.9
2022-08-27T10:47:55.399Z,20.8
2022-08-27T10:48:55.416Z,20.7
2022-08-27T10:49:55.459Z,21.1
2022-08-27T10:50:55.380Z,21.2
2022-08-27T10:51:55.399Z,21
2022-08-27T10:52:55.395Z,21
2022-08-27T10:53:55.409Z,20.9
2022-08-27T10:54:55.389Z,21
2022-08-27T10:55:55.395Z,21.1
2022-08-27T10:57:14.605Z,21
2022-08-27T10:57:58.883Z,21.3
2022-08-27T10:58:55.395Z,21.2
2022-08-27T10:59:55.407Z,21.2
2022-08-27T11:00:55.484Z,21
2022-08-27T11:01:55.458Z,21
2022-08-27T11:02:55.410Z,21.3
2022-08-27T11:03:55.390Z,21.5
2022-08-27T11:04:55.403Z,21.9
2022-08-27T11:05:55.398Z,21.7
2022-08-27T11:06:55.417Z,21.6
2022-08-27T11:07:55.426Z,21.4
2022-08-27T11:08:55.397Z,21.3
2022-08-27T11:09:57.199Z,21.3
2022-08-27T11:10:55.406Z,21.1
2022-08-27T11:12:14.387Z,21
2022-08-27T11:12:55.440Z,20.9
2022-08-27T11:13:58.797Z,21
2022-08-27T11:14:55.392Z,21
2022-08-27T11:15:55.400Z,21.1
2022-08-27T11:16:55.496Z,21.2
2022-08-27T11:17:55.393Z,21.2
2022-08-27T11:18:55.438Z,21.4
2022-08-27T11:19:55.400Z,21.4
2022-08-27T11:20:55.405Z,21.2
2022-08-27T11:21:55.448Z,21.1
2022-08-27T11:22:55.426Z,21.2
2022-08-27T11:23:55.474Z,21.2
2022-08-27T11:24:55.402Z,21
2022-08-27T11:25:55.407Z,20.9
2022-08-27T11:26:55.408Z,21.1
2022-08-27T11:27:55.416Z,21
2022-08-27T11:28:55.415Z,21.2
2022-08-27T11:30:00.093Z,21.3
2022-08-27T11:30:55.417Z,21.2
2022-08-27T11:31:55.476Z,21.2
2022-08-27T11:32:55.419Z,21.2
2022-08-27T11:33:55.415Z,21.2
2022-08-27T11:34:55.423Z,21.1
2022-08-27T11:35:55.477Z,20.9
2022-08-27T11:36:55.417Z,20.8
2022-08-27T11:37:55.430Z,20.7
2022-08-27T11:38:55.417Z,20.7
2022-08-27T11:39:55.492Z,20.8
2022-08-27T11:40:55.424Z,20.7
2022-08-27T11:41:55.421Z,20.8
2022-08-27T11:42:55.417Z,20.8
2022-08-27T11:43:55.420Z,20.8
2022-08-27T11:44:55.423Z,20.8
2022-08-27T11:45:55.413Z,20.8
2022-08-27T11:46:55.475Z,20.9
2022-08-27T11:47:55.468Z,20.8
2022-08-27T11:48:55.429Z,21
2022-08-27T11:49:55.417Z,21.3
2022-08-27T11:50:55.412Z,21.2
2022-08-27T11:51:55.418Z,21.1
2022-08-27T11:52:55.432Z,21.1
2022-08-27T11:53:55.409Z,21.3
2022-08-27T11:54:55.409Z,21.4
2022-08-27T11:55:55.433Z,21.4
2022-08-27T11:56:55.433Z,21.5
2022-08-27T11:57:55.410Z,21.5
2022-08-27T11:58:55.406Z,21.6
2022-08-27T11:59:55.415Z,21.6
2022-08-27T12:00:55.431Z,21.7
2022-08-27T12:01:55.416Z,21.6
2022-08-27T12:02:55.449Z,21.5
2022-08-27T12:03:55.520Z,21.3
2022-08-27T12:04:55.416Z,21.4
2022-08-27T12:05:55.417Z,21.5
2022-08-27T12:06:55.434Z,21.6
2022-08-27T12:07:55.425Z,21.7
2022-08-27T12:08:55.415Z,21.7
2022-08-27T12:09:55.476Z,21.5
2022-08-27T12:10:55.412Z,21.2
2022-08-27T12:11:56.704Z,21.2
2022-08-27T12:12:55.422Z,21.3
2022-08-27T12:13:55.427Z,21.1
2022-08-27T12:14:55.415Z,21
2022-08-27T12:15:55.492Z,21
2022-08-27T12:16:55.436Z,21
2022-08-27T12:17:55.424Z,21.2
2022-08-27T12:18:55.421Z,21.2
2022-08-27T12:19:55.432Z,21.3
2022-08-27T12:20:55.434Z,21.3
2022-08-27T12:21:55.415Z,21.2
2022-08-27T12:22:55.423Z,21.1
2022-08-27T12:23:55.431Z,21.2
2022-08-27T12:24:55.839Z,21.2
2022-08-27T12:25:55.418Z,21.3
2022-08-27T12:26:55.453Z,21.3
2022-08-27T12:27:55.424Z,21.6
2022-08-27T12:28:55.427Z,21.4
2022-08-27T12:29:55.437Z,21.4
2022-08-27T12:30:55.456Z,21.2
2022-08-27T12:31:55.560Z,21.3
2022-08-27T12:32:55.421Z,21.4
2022-08-27T12:33:55.432Z,21.5
2022-08-27T12:34:59.496Z,21.8
2022-08-27T12:35:55.430Z,21.8
2022-08-27T12:36:55.417Z,22
2022-08-27T12:37:57.017Z,21.9
2022-08-27T12:38:55.456Z,21.8
2022-08-27T12:39:55.488Z,21.7
2022-08-27T12:40:55.435Z,21.6
2022-08-27T12:41:55.442Z,21.5
2022-08-27T12:42:55.441Z,21.5
2022-08-27T12:43:55.428Z,21.3
2022-08-27T12:44:55.417Z,21.4
2022-08-27T12:45:55.434Z,21.4
2022-08-27T12:46:55.539Z,21.6
2022-08-27T12:47:55.421Z,21.4
2022-08-27T12:48:55.429Z,21.3
2022-08-27T12:49:55.975Z,21.2
2022-08-27T12:50:55.460Z,21.3
2022-08-27T12:51:55.435Z,21.4
2022-08-27T12:52:55.430Z,21.4
2022-08-27T12:53:55.431Z,21.4
2022-08-27T12:54:55.422Z,21.4
2022-08-27T12:55:55.432Z,21.2
2022-08-27T12:56:55.442Z,21.2
2022-08-27T12:57:55.427Z,21.4
2022-08-27T12:58:55.443Z,21.5
2022-08-27T12:59:55.451Z,21.5
2022-08-27T13:00:55.621Z,21.4
2022-08-27T13:01:55.555Z,21.5
2022-08-27T13:02:55.437Z,21.6
2022-08-27T13:03:55.454Z,21.4
2022-08-27T13:04:55.453Z,21.5
2022-08-27T13:05:55.436Z,21.6
2022-08-27T13:06:55.437Z,21.6
2022-08-27T13:07:55.439Z,21.5
2022-08-27T13:08:55.447Z,21.5
2022-08-27T13:09:57.405Z,21.5
2022-08-27T13:10:55.455Z,21.5
2022-08-27T13:11:55.451Z,21.6
2022-08-27T13:12:55.425Z,21.6
2022-08-27T13:13:55.449Z,21.5
2022-08-27T13:14:56.874Z,21.6
2022-08-27T13:15:55.552Z,21.6
2022-08-27T13:16:55.427Z,21.6
2022-08-27T13:17:55.452Z,21.6
2022-08-27T13:18:55.444Z,21.6
2022-08-27T13:19:55.452Z,21.6
2022-08-27T13:20:55.455Z,21.7
2022-08-27T13:21:55.436Z,21.7
2022-08-27T13:22:55.444Z,21.8
2022-08-27T13:23:55.448Z,21.8
2022-08-27T13:24:55.455Z,21.8
2022-08-27T13:25:55.455Z,21.9
2022-08-27T13:26:55.434Z,21.9
2022-08-27T13:27:55.443Z,21.8
2022-08-27T13:28:56.636Z,21.7
2022-08-27T13:29:55.430Z,21.8